sensor_id;sensor_type;location;lat;lon;timestamp;temperature;humidity
15554;DHT22;7878;44.632;10.942;2023-02-26T00:00:10;14.80;94.80
15554;DHT22;7878;44.632;10.942;2023-02-26T00:02:40;14.80;94.80
15554;DHT22;7878;44.632;10.942;2023-02-26T00:05:06;14.80;94.80
15554;DHT22;7878;44.632;10.942;2023-02-26T00:07:32;14.80;95.10
15554;DHT22;7878;44.632;10.942;2023-02-26T00:09:58;14.80;94.80
15554;DHT22;7878;44.632;10.942;2023-02-26T00:12:26;14.80;94.80
15554;DHT22;7878;44.632;10.942;2023-02-26T00:14:52;14.80;94.90
15554;DHT22;7878;44.632;10.942;2023-02-26T00:17:35;14.80;94.90
15554;DHT22;7878;44.632;10.942;2023-02-26T00:20:04;14.80;94.90
15554;DHT22;7878;44.632;10.942;2023-02-26T00:22:30;14.80;94.90
15554;DHT22;7878;44.632;10.942;2023-02-26T00:24:56;14.80;94.80
15554;DHT22;7878;44.632;10.942;2023-02-26T00:27:22;14.80;94.90
15554;DHT22;7878;44.632;10.942;2023-02-26T00:29:48;14.90;95.00
15554;DHT22;7878;44.632;10.942;2023-02-26T00:32:15;14.90;95.00
15554;DHT22;7878;44.632;10.942;2023-02-26T00:34:44;14.90;94.90
15554;DHT22;7878;44.632;10.942;2023-02-26T00:42:11;14.90;95.00
15554;DHT22;7878;44.632;10.942;2023-02-26T00:44:37;14.90;95.00
15554;DHT22;7878;44.632;10.942;2023-02-26T00:50:12;14.90;95.20
15554;DHT22;7878;44.632;10.942;2023-02-26T00:55:29;14.90;95.40
15554;DHT22;7878;44.632;10.942;2023-02-26T00:57:54;14.90;95.40
15554;DHT22;7878;44.632;10.942;2023-02-26T01:00:20;14.90;95.20
15554;DHT22;7878;44.632;10.942;2023-02-26T01:02:47;15.00;95.30
15554;DHT22;7878;44.632;10.942;2023-02-26T01:05:13;14.90;95.20
15554;DHT22;7878;44.632;10.942;2023-02-26T01:10:27;15.00;95.30
15554;DHT22;7878;44.632;10.942;2023-02-26T01:12:53;15.00;95.20
15554;DHT22;7878;44.632;10.942;2023-02-26T01:15:22;15.00;95.20
15554;DHT22;7878;44.632;10.942;2023-02-26T01:18:08;15.00;95.30
15554;DHT22;7878;44.632;10.942;2023-02-26T01:20:43;15.00;95.70
15554;DHT22;7878;44.632;10.942;2023-02-26T01:23:17;15.00;95.50
15554;DHT22;7878;44.632;10.942;2023-02-26T01:25:58;15.00;95.70
15554;DHT22;7878;44.632;10.942;2023-02-26T01:28:26;14.90;96.10
15554;DHT22;7878;44.632;10.942;2023-02-26T01:30:54;14.90;96.30
15554;DHT22;7878;44.632;10.942;2023-02-26T01:33:34;14.90;96.30
15554;DHT22;7878;44.632;10.942;2023-02-26T01:36:09;14.90;96.90
15554;DHT22;7878;44.632;10.942;2023-02-26T01:38:55;14.80;96.90
15554;DHT22;7878;44.632;10.942;2023-02-26T01:47:03;14.80;97.00
15554;DHT22;7878;44.632;10.942;2023-02-26T01:49:31;14.70;97.80
15554;DHT22;7878;44.632;10.942;2023-02-26T01:52:02;14.60;97.50
15554;DHT22;7878;44.632;10.942;2023-02-26T01:54:32;14.60;97.60
15554;DHT22;7878;44.632;10.942;2023-02-26T01:59:29;14.40;98.10
15554;DHT22;7878;44.632;10.942;2023-02-26T02:01:57;14.30;98.40
15554;DHT22;7878;44.632;10.942;2023-02-26T02:04:24;14.20;98.40
15554;DHT22;7878;44.632;10.942;2023-02-26T02:06:50;14.20;99.00
15554;DHT22;7878;44.632;10.942;2023-02-26T02:09:16;14.10;99.20
15554;DHT22;7878;44.632;10.942;2023-02-26T02:11:56;14.00;99.60
15554;DHT22;7878;44.632;10.942;2023-02-26T02:25:53;13.60;99.90
15554;DHT22;7878;44.632;10.942;2023-02-26T02:33:49;13.70;99.90
15554;DHT22;7878;44.632;10.942;2023-02-26T02:36:54;13.60;99.90
15554;DHT22;7878;44.632;10.942;2023-02-26T02:39:21;13.70;99.90
15554;DHT22;7878;44.632;10.942;2023-02-26T02:41:57;13.50;99.90
15554;DHT22;7878;44.632;10.942;2023-02-26T02:44:27;13.50;99.90
15554;DHT22;7878;44.632;10.942;2023-02-26T02:46:56;13.40;99.90
15554;DHT22;7878;44.632;10.942;2023-02-26T02:49:36;13.40;99.90
15554;DHT22;7878;44.632;10.942;2023-02-26T02:52:33;13.40;99.90
15554;DHT22;7878;44.632;10.942;2023-02-26T02:55:14;13.30;99.90
15554;DHT22;7878;44.632;10.942;2023-02-26T02:57:49;13.20;99.90
15554;DHT22;7878;44.632;10.942;2023-02-26T03:00:16;13.10;99.90
15554;DHT22;7878;44.632;10.942;2023-02-26T03:03:04;13.00;99.90
15554;DHT22;7878;44.632;10.942;2023-02-26T03:05:31;13.00;99.90
15554;DHT22;7878;44.632;10.942;2023-02-26T03:08:04;13.00;99.90
15554;DHT22;7878;44.632;10.942;2023-02-26T03:10:31;12.90;99.90
15554;DHT22;7878;44.632;10.942;2023-02-26T03:12:57;13.00;99.90
15554;DHT22;7878;44.632;10.942;2023-02-26T03:15:38;13.00;99.90
15554;DHT22;7878;44.632;10.942;2023-02-26T03:21:11;13.00;99.90
15554;DHT22;7878;44.632;10.942;2023-02-26T03:24:01;12.90;99.90
15554;DHT22;7878;44.632;10.942;2023-02-26T03:26:40;12.70;99.90
15554;DHT22;7878;44.632;10.942;2023-02-26T03:29:23;12.60;99.90
15554;DHT22;7878;44.632;10.942;2023-02-26T03:31:58;12.40;99.90
15554;DHT22;7878;44.632;10.942;2023-02-26T03:34:42;12.30;99.90
15554;DHT22;7878;44.632;10.942;2023-02-26T03:37:40;12.20;99.90
15554;DHT22;7878;44.632;10.942;2023-02-26T03:40:19;11.60;99.90
15554;DHT22;7878;44.632;10.942;2023-02-26T03:45:29;10.40;99.90
15554;DHT22;7878;44.632;10.942;2023-02-26T03:47:57;10.00;99.90
15554;DHT22;7878;44.632;10.942;2023-02-26T03:50:31;9.80;99.90
15554;DHT22;7878;44.632;10.942;2023-02-26T03:52:59;9.70;99.90
15554;DHT22;7878;44.632;10.942;2023-02-26T03:55:37;9.70;99.90
15554;DHT22;7878;44.632;10.942;2023-02-26T03:58:04;9.70;99.90
15554;DHT22;7878;44.632;10.942;2023-02-26T04:00:31;9.60;99.90
15554;DHT22;7878;44.632;10.942;2023-02-26T04:05:46;9.50;99.90
15554;DHT22;7878;44.632;10.942;2023-02-26T04:08:12;9.30;99.90
15554;DHT22;7878;44.632;10.942;2023-02-26T04:13:18;9.20;99.90
15554;DHT22;7878;44.632;10.942;2023-02-26T04:15:44;9.10;99.90
15554;DHT22;7878;44.632;10.942;2023-02-26T04:18:10;9.20;99.90
15554;DHT22;7878;44.632;10.942;2023-02-26T04:20:35;9.30;99.90
15554;DHT22;7878;44.632;10.942;2023-02-26T04:23:01;9.20;99.90
15554;DHT22;7878;44.632;10.942;2023-02-26T04:25:27;9.10;99.90
15554;DHT22;7878;44.632;10.942;2023-02-26T04:27:52;9.10;99.90
15554;DHT22;7878;44.632;10.942;2023-02-26T04:30:18;9.00;99.90
15554;DHT22;7878;44.632;10.942;2023-02-26T04:32:44;8.90;99.90
15554;DHT22;7878;44.632;10.942;2023-02-26T04:35:09;8.80;99.90
15554;DHT22;7878;44.632;10.942;2023-02-26T04:37:35;8.80;99.90
15554;DHT22;7878;44.632;10.942;2023-02-26T04:40:01;8.80;99.90
15554;DHT22;7878;44.632;10.942;2023-02-26T04:42:26;8.60;99.90
15554;DHT22;7878;44.632;10.942;2023-02-26T04:44:52;8.50;99.90
15554;DHT22;7878;44.632;10.942;2023-02-26T04:47:17;8.40;99.90
15554;DHT22;7878;44.632;10.942;2023-02-26T04:49:43;8.40;99.90
15554;DHT22;7878;44.632;10.942;2023-02-26T04:52:09;8.50;99.90
15554;DHT22;7878;44.632;10.942;2023-02-26T04:54:34;8.40;99.90
15554;DHT22;7878;44.632;10.942;2023-02-26T04:57:00;8.20;99.90
15554;DHT22;7878;44.632;10.942;2023-02-26T04:59:26;8.10;99.90
15554;DHT22;7878;44.632;10.942;2023-02-26T05:01:51;8.10;99.90
15554;DHT22;7878;44.632;10.942;2023-02-26T05:04:17;8.10;99.90
15554;DHT22;7878;44.632;10.942;2023-02-26T05:06:43;8.00;99.90
15554;DHT22;7878;44.632;10.942;2023-02-26T05:09:08;8.00;99.90
15554;DHT22;7878;44.632;10.942;2023-02-26T05:11:34;8.00;99.90
15554;DHT22;7878;44.632;10.942;2023-02-26T05:14:00;7.90;99.90
15554;DHT22;7878;44.632;10.942;2023-02-26T05:16:25;7.90;99.90
15554;DHT22;7878;44.632;10.942;2023-02-26T05:18:51;8.00;99.90
15554;DHT22;7878;44.632;10.942;2023-02-26T05:21:17;7.90;99.90
15554;DHT22;7878;44.632;10.942;2023-02-26T05:23:43;8.00;99.90
15554;DHT22;7878;44.632;10.942;2023-02-26T05:26:08;8.10;99.90
15554;DHT22;7878;44.632;10.942;2023-02-26T05:28:34;8.10;99.90
15554;DHT22;7878;44.632;10.942;2023-02-26T05:31:01;8.10;99.90
15554;DHT22;7878;44.632;10.942;2023-02-26T05:33:27;8.00;99.90
15554;DHT22;7878;44.632;10.942;2023-02-26T05:35:53;7.90;99.90
15554;DHT22;7878;44.632;10.942;2023-02-26T05:38:18;7.80;99.90
15554;DHT22;7878;44.632;10.942;2023-02-26T05:40:45;7.70;99.90
15554;DHT22;7878;44.632;10.942;2023-02-26T05:43:10;7.80;99.90
15554;DHT22;7878;44.632;10.942;2023-02-26T05:45:36;7.70;99.90
15554;DHT22;7878;44.632;10.942;2023-02-26T05:48:02;7.70;99.90
15554;DHT22;7878;44.632;10.942;2023-02-26T05:50:28;7.60;99.90
15554;DHT22;7878;44.632;10.942;2023-02-26T05:52:55;7.60;99.90
15554;DHT22;7878;44.632;10.942;2023-02-26T05:55:21;7.70;99.90
15554;DHT22;7878;44.632;10.942;2023-02-26T05:57:47;7.70;99.90
15554;DHT22;7878;44.632;10.942;2023-02-26T06:00:13;7.70;99.90
15554;DHT22;7878;44.632;10.942;2023-02-26T06:02:39;7.80;99.90
15554;DHT22;7878;44.632;10.942;2023-02-26T06:05:06;7.70;99.90
15554;DHT22;7878;44.632;10.942;2023-02-26T06:07:32;7.70;99.90
15554;DHT22;7878;44.632;10.942;2023-02-26T06:09:58;7.70;99.90
15554;DHT22;7878;44.632;10.942;2023-02-26T06:12:23;7.60;99.90
15554;DHT22;7878;44.632;10.942;2023-02-26T06:14:49;7.60;99.90
15554;DHT22;7878;44.632;10.942;2023-02-26T06:17:15;7.60;99.90
15554;DHT22;7878;44.632;10.942;2023-02-26T06:19:41;7.50;99.90
15554;DHT22;7878;44.632;10.942;2023-02-26T06:22:07;7.30;99.90
15554;DHT22;7878;44.632;10.942;2023-02-26T06:24:33;7.20;99.90
15554;DHT22;7878;44.632;10.942;2023-02-26T06:26:59;7.10;99.90
15554;DHT22;7878;44.632;10.942;2023-02-26T06:29:25;7.00;99.90
15554;DHT22;7878;44.632;10.942;2023-02-26T06:31:50;7.00;99.90
15554;DHT22;7878;44.632;10.942;2023-02-26T06:34:16;6.90;99.90
15554;DHT22;7878;44.632;10.942;2023-02-26T06:36:42;6.90;99.90
15554;DHT22;7878;44.632;10.942;2023-02-26T06:39:08;6.90;99.90
15554;DHT22;7878;44.632;10.942;2023-02-26T06:41:34;6.90;99.90
15554;DHT22;7878;44.632;10.942;2023-02-26T06:43:59;6.90;99.90
15554;DHT22;7878;44.632;10.942;2023-02-26T06:46:25;6.90;99.90
15554;DHT22;7878;44.632;10.942;2023-02-26T06:48:51;6.90;99.90
15554;DHT22;7878;44.632;10.942;2023-02-26T06:51:16;7.00;99.90
15554;DHT22;7878;44.632;10.942;2023-02-26T06:53:42;7.10;99.90
15554;DHT22;7878;44.632;10.942;2023-02-26T06:56:08;7.20;99.90
15554;DHT22;7878;44.632;10.942;2023-02-26T06:58:33;7.20;99.90
15554;DHT22;7878;44.632;10.942;2023-02-26T07:00:59;7.20;99.90
15554;DHT22;7878;44.632;10.942;2023-02-26T07:03:25;7.30;99.90
15554;DHT22;7878;44.632;10.942;2023-02-26T07:05:50;7.30;99.90
15554;DHT22;7878;44.632;10.942;2023-02-26T07:08:17;7.40;99.90
15554;DHT22;7878;44.632;10.942;2023-02-26T07:10:42;7.50;99.90
15554;DHT22;7878;44.632;10.942;2023-02-26T07:13:10;7.60;99.90
15554;DHT22;7878;44.632;10.942;2023-02-26T07:15:36;7.80;99.90
15554;DHT22;7878;44.632;10.942;2023-02-26T07:18:01;7.80;99.90
15554;DHT22;7878;44.632;10.942;2023-02-26T07:20:27;7.70;99.90
15554;DHT22;7878;44.632;10.942;2023-02-26T07:22:54;7.70;99.90
15554;DHT22;7878;44.632;10.942;2023-02-26T07:25:19;7.70;99.90
15554;DHT22;7878;44.632;10.942;2023-02-26T07:27:46;7.70;99.90
15554;DHT22;7878;44.632;10.942;2023-02-26T07:30:12;7.60;99.90
15554;DHT22;7878;44.632;10.942;2023-02-26T07:32:38;7.50;99.90
15554;DHT22;7878;44.632;10.942;2023-02-26T07:35:04;7.60;99.90
15554;DHT22;7878;44.632;10.942;2023-02-26T07:37:30;7.70;99.90
15554;DHT22;7878;44.632;10.942;2023-02-26T07:39:56;7.70;99.90
15554;DHT22;7878;44.632;10.942;2023-02-26T07:42:21;7.80;99.90
15554;DHT22;7878;44.632;10.942;2023-02-26T07:44:47;7.80;99.90
15554;DHT22;7878;44.632;10.942;2023-02-26T07:47:13;7.80;99.90
15554;DHT22;7878;44.632;10.942;2023-02-26T07:49:38;7.70;99.90
15554;DHT22;7878;44.632;10.942;2023-02-26T07:52:04;7.80;99.90
15554;DHT22;7878;44.632;10.942;2023-02-26T07:54:33;7.80;99.90
15554;DHT22;7878;44.632;10.942;2023-02-26T07:56:59;7.80;99.90
15554;DHT22;7878;44.632;10.942;2023-02-26T07:59:24;7.70;99.90
15554;DHT22;7878;44.632;10.942;2023-02-26T08:01:50;7.60;99.90
15554;DHT22;7878;44.632;10.942;2023-02-26T08:04:16;7.60;99.90
15554;DHT22;7878;44.632;10.942;2023-02-26T08:06:41;7.70;99.90
15554;DHT22;7878;44.632;10.942;2023-02-26T08:09:07;7.60;99.90
15554;DHT22;7878;44.632;10.942;2023-02-26T08:11:33;7.70;99.90
15554;DHT22;7878;44.632;10.942;2023-02-26T08:14:01;7.70;99.90
15554;DHT22;7878;44.632;10.942;2023-02-26T08:16:27;7.80;99.90
15554;DHT22;7878;44.632;10.942;2023-02-26T08:18:53;7.80;99.90
15554;DHT22;7878;44.632;10.942;2023-02-26T08:21:18;7.80;99.90
15554;DHT22;7878;44.632;10.942;2023-02-26T08:23:44;7.90;99.90
15554;DHT22;7878;44.632;10.942;2023-02-26T08:26:10;7.90;99.90
15554;DHT22;7878;44.632;10.942;2023-02-26T08:28:37;8.00;99.90
15554;DHT22;7878;44.632;10.942;2023-02-26T08:31:04;8.00;99.90
15554;DHT22;7878;44.632;10.942;2023-02-26T08:33:30;8.00;99.90
15554;DHT22;7878;44.632;10.942;2023-02-26T08:35:56;8.10;99.90
15554;DHT22;7878;44.632;10.942;2023-02-26T08:38:24;8.10;99.90
15554;DHT22;7878;44.632;10.942;2023-02-26T08:40:50;8.10;99.90
15554;DHT22;7878;44.632;10.942;2023-02-26T08:43:17;8.10;99.90
15554;DHT22;7878;44.632;10.942;2023-02-26T08:45:44;8.10;99.90
15554;DHT22;7878;44.632;10.942;2023-02-26T08:48:09;8.20;99.90
15554;DHT22;7878;44.632;10.942;2023-02-26T08:50:35;8.30;99.90
15554;DHT22;7878;44.632;10.942;2023-02-26T08:53:01;8.20;99.90
15554;DHT22;7878;44.632;10.942;2023-02-26T08:55:27;8.10;99.90
15554;DHT22;7878;44.632;10.942;2023-02-26T08:57:52;8.10;99.90
15554;DHT22;7878;44.632;10.942;2023-02-26T09:00:18;8.20;99.90
15554;DHT22;7878;44.632;10.942;2023-02-26T09:02:45;8.30;99.90
15554;DHT22;7878;44.632;10.942;2023-02-26T09:05:11;8.40;99.90
15554;DHT22;7878;44.632;10.942;2023-02-26T09:07:37;8.30;99.90
15554;DHT22;7878;44.632;10.942;2023-02-26T09:10:04;8.10;99.90
15554;DHT22;7878;44.632;10.942;2023-02-26T09:12:31;8.10;99.90
15554;DHT22;7878;44.632;10.942;2023-02-26T09:14:56;8.20;99.90
15554;DHT22;7878;44.632;10.942;2023-02-26T09:17:24;8.20;99.90
15554;DHT22;7878;44.632;10.942;2023-02-26T09:19:49;8.20;99.90
15554;DHT22;7878;44.632;10.942;2023-02-26T09:22:15;8.20;99.90
15554;DHT22;7878;44.632;10.942;2023-02-26T09:24:41;8.30;99.90
15554;DHT22;7878;44.632;10.942;2023-02-26T09:27:07;8.30;99.90
15554;DHT22;7878;44.632;10.942;2023-02-26T09:29:33;8.30;99.90
15554;DHT22;7878;44.632;10.942;2023-02-26T09:31:59;8.20;99.90
15554;DHT22;7878;44.632;10.942;2023-02-26T09:34:24;8.00;99.90
15554;DHT22;7878;44.632;10.942;2023-02-26T09:36:50;8.10;99.90
15554;DHT22;7878;44.632;10.942;2023-02-26T09:39:16;7.80;99.90
15554;DHT22;7878;44.632;10.942;2023-02-26T09:42:09;7.80;99.90
15554;DHT22;7878;44.632;10.942;2023-02-26T09:44:37;7.80;99.90
15554;DHT22;7878;44.632;10.942;2023-02-26T09:47:34;7.70;99.90
15554;DHT22;7878;44.632;10.942;2023-02-26T09:58:23;7.90;99.90
15554;DHT22;7878;44.632;10.942;2023-02-26T10:06:24;8.10;99.90
15554;DHT22;7878;44.632;10.942;2023-02-26T10:14:39;7.90;99.90
15554;DHT22;7878;44.632;10.942;2023-02-26T10:19:59;7.80;99.90
15554;DHT22;7878;44.632;10.942;2023-02-26T10:22:39;7.70;99.90
15554;DHT22;7878;44.632;10.942;2023-02-26T10:25:15;7.60;99.90
15554;DHT22;7878;44.632;10.942;2023-02-26T10:30:32;7.30;99.90
15554;DHT22;7878;44.632;10.942;2023-02-26T10:35:50;7.30;99.90
15554;DHT22;7878;44.632;10.942;2023-02-26T10:38:21;7.30;99.90
15554;DHT22;7878;44.632;10.942;2023-02-26T10:40:52;7.40;99.90
15554;DHT22;7878;44.632;10.942;2023-02-26T10:43:39;7.40;99.90
15554;DHT22;7878;44.632;10.942;2023-02-26T10:51:56;7.40;99.90
15554;DHT22;7878;44.632;10.942;2023-02-26T10:54:38;7.50;99.90
15554;DHT22;7878;44.632;10.942;2023-02-26T10:57:20;7.50;99.90
15554;DHT22;7878;44.632;10.942;2023-02-26T10:59:47;7.50;99.10
15554;DHT22;7878;44.632;10.942;2023-02-26T11:02:38;7.40;99.30
15554;DHT22;7878;44.632;10.942;2023-02-26T11:05:12;7.40;99.90
15554;DHT22;7878;44.632;10.942;2023-02-26T11:07:40;7.30;99.90
15554;DHT22;7878;44.632;10.942;2023-02-26T11:10:14;7.30;99.90
15554;DHT22;7878;44.632;10.942;2023-02-26T11:12:41;7.20;99.90
15554;DHT22;7878;44.632;10.942;2023-02-26T11:15:12;7.10;99.90
15554;DHT22;7878;44.632;10.942;2023-02-26T11:17:38;7.10;99.90
15554;DHT22;7878;44.632;10.942;2023-02-26T11:20:24;7.10;99.90
15554;DHT22;7878;44.632;10.942;2023-02-26T11:22:52;7.20;99.90
15554;DHT22;7878;44.632;10.942;2023-02-26T11:25:27;7.30;99.90
15554;DHT22;7878;44.632;10.942;2023-02-26T11:28:03;7.40;99.00
15554;DHT22;7878;44.632;10.942;2023-02-26T11:30:31;7.40;99.40
15554;DHT22;7878;44.632;10.942;2023-02-26T11:33:06;7.40;99.10
15554;DHT22;7878;44.632;10.942;2023-02-26T11:35:32;7.50;98.60
15554;DHT22;7878;44.632;10.942;2023-02-26T11:38:00;7.50;97.40
15554;DHT22;7878;44.632;10.942;2023-02-26T11:40:34;7.50;97.80
15554;DHT22;7878;44.632;10.942;2023-02-26T11:43:05;7.50;98.20
15554;DHT22;7878;44.632;10.942;2023-02-26T11:45:35;7.60;99.80
15554;DHT22;7878;44.632;10.942;2023-02-26T11:48:05;7.40;99.30
15554;DHT22;7878;44.632;10.942;2023-02-26T11:50:39;7.40;99.90
15554;DHT22;7878;44.632;10.942;2023-02-26T11:53:16;7.40;99.90
15554;DHT22;7878;44.632;10.942;2023-02-26T11:55:45;7.10;99.90
15554;DHT22;7878;44.632;10.942;2023-02-26T11:58:20;7.00;99.90
15554;DHT22;7878;44.632;10.942;2023-02-26T12:00:48;6.80;99.90
15554;DHT22;7878;44.632;10.942;2023-02-26T12:03:26;6.90;99.90
15554;DHT22;7878;44.632;10.942;2023-02-26T12:05:57;6.90;99.90
15554;DHT22;7878;44.632;10.942;2023-02-26T12:08:27;7.00;99.90
15554;DHT22;7878;44.632;10.942;2023-02-26T12:14:07;6.90;99.90
15554;DHT22;7878;44.632;10.942;2023-02-26T12:33:52;7.30;99.90
15554;DHT22;7878;44.632;10.942;2023-02-26T12:39:14;7.30;99.90
15554;DHT22;7878;44.632;10.942;2023-02-26T12:58:49;7.30;99.90
15554;DHT22;7878;44.632;10.942;2023-02-26T13:10:10;6.50;99.90
15554;DHT22;7878;44.632;10.942;2023-02-26T13:22:20;6.20;99.90
15554;DHT22;7878;44.632;10.942;2023-02-26T13:25:04;6.20;99.90
15554;DHT22;7878;44.632;10.942;2023-02-26T13:27:35;6.20;99.90
15554;DHT22;7878;44.632;10.942;2023-02-26T13:32:46;6.10;99.90
15554;DHT22;7878;44.632;10.942;2023-02-26T13:35:32;6.10;99.90
15554;DHT22;7878;44.632;10.942;2023-02-26T13:38:01;6.10;99.90
15554;DHT22;7878;44.632;10.942;2023-02-26T13:40:33;6.10;99.90
15554;DHT22;7878;44.632;10.942;2023-02-26T13:43:23;6.10;99.90
15554;DHT22;7878;44.632;10.942;2023-02-26T13:48:40;6.10;99.90
15554;DHT22;7878;44.632;10.942;2023-02-26T13:54:06;6.10;99.90
15554;DHT22;7878;44.632;10.942;2023-02-26T14:01:34;6.00;99.90
15554;DHT22;7878;44.632;10.942;2023-02-26T14:14:42;6.10;99.90
15554;DHT22;7878;44.632;10.942;2023-02-26T14:22:20;6.00;99.90
15554;DHT22;7878;44.632;10.942;2023-02-26T14:24:56;6.00;99.90
15554;DHT22;7878;44.632;10.942;2023-02-26T14:27:30;6.00;99.90
15554;DHT22;7878;44.632;10.942;2023-02-26T14:35:28;6.10;99.90
15554;DHT22;7878;44.632;10.942;2023-02-26T14:40:32;6.20;99.90
15554;DHT22;7878;44.632;10.942;2023-02-26T14:43:01;6.20;99.90
15554;DHT22;7878;44.632;10.942;2023-02-26T14:47:56;6.20;99.90
15554;DHT22;7878;44.632;10.942;2023-02-26T14:50:25;6.10;99.90
15554;DHT22;7878;44.632;10.942;2023-02-26T14:53:12;6.10;99.90
15554;DHT22;7878;44.632;10.942;2023-02-26T14:58:31;6.10;99.90
15554;DHT22;7878;44.632;10.942;2023-02-26T15:11:48;6.10;99.90
15554;DHT22;7878;44.632;10.942;2023-02-26T15:14:41;6.10;99.90
15554;DHT22;7878;44.632;10.942;2023-02-26T15:17:56;6.10;99.90
15554;DHT22;7878;44.632;10.942;2023-02-26T15:25:55;6.10;99.90
15554;DHT22;7878;44.632;10.942;2023-02-26T15:28:27;6.10;99.90
15554;DHT22;7878;44.632;10.942;2023-02-26T15:30:54;6.20;99.90
15554;DHT22;7878;44.632;10.942;2023-02-26T15:33:22;6.20;99.90
15554;DHT22;7878;44.632;10.942;2023-02-26T15:35:49;6.30;99.90
15554;DHT22;7878;44.632;10.942;2023-02-26T15:38:17;6.30;99.90
15554;DHT22;7878;44.632;10.942;2023-02-26T15:40:44;6.30;99.90
15554;DHT22;7878;44.632;10.942;2023-02-26T15:43:14;6.30;99.90
15554;DHT22;7878;44.632;10.942;2023-02-26T15:45:44;6.20;99.90
15554;DHT22;7878;44.632;10.942;2023-02-26T15:48:19;6.20;99.90
15554;DHT22;7878;44.632;10.942;2023-02-26T15:50:48;6.00;99.90
15554;DHT22;7878;44.632;10.942;2023-02-26T15:53:27;5.90;99.90
15554;DHT22;7878;44.632;10.942;2023-02-26T15:55:55;5.80;99.90
15554;DHT22;7878;44.632;10.942;2023-02-26T15:58:41;5.80;99.90
15554;DHT22;7878;44.632;10.942;2023-02-26T16:01:23;5.80;99.90
15554;DHT22;7878;44.632;10.942;2023-02-26T16:03:51;5.80;99.90
15554;DHT22;7878;44.632;10.942;2023-02-26T16:06:44;5.80;99.90
15554;DHT22;7878;44.632;10.942;2023-02-26T16:09:18;5.80;99.90
15554;DHT22;7878;44.632;10.942;2023-02-26T16:11:44;5.90;99.90
15554;DHT22;7878;44.632;10.942;2023-02-26T16:14:26;5.90;99.90
15554;DHT22;7878;44.632;10.942;2023-02-26T16:16:54;5.90;99.90
15554;DHT22;7878;44.632;10.942;2023-02-26T16:19:40;6.00;99.90
15554;DHT22;7878;44.632;10.942;2023-02-26T16:22:20;6.10;99.90
15554;DHT22;7878;44.632;10.942;2023-02-26T16:24:52;6.20;99.90
15554;DHT22;7878;44.632;10.942;2023-02-26T16:27:19;6.30;99.90
15554;DHT22;7878;44.632;10.942;2023-02-26T16:29:51;6.40;99.90
15554;DHT22;7878;44.632;10.942;2023-02-26T16:32:18;6.30;99.90
15554;DHT22;7878;44.632;10.942;2023-02-26T16:34:52;6.30;99.90
15554;DHT22;7878;44.632;10.942;2023-02-26T16:39:51;6.50;99.90
15554;DHT22;7878;44.632;10.942;2023-02-26T16:42:30;6.50;99.90
15554;DHT22;7878;44.632;10.942;2023-02-26T16:45:16;6.50;99.90
15554;DHT22;7878;44.632;10.942;2023-02-26T16:47:49;6.40;99.90
15554;DHT22;7878;44.632;10.942;2023-02-26T16:50:21;6.50;99.90
15554;DHT22;7878;44.632;10.942;2023-02-26T17:44:55;6.70;99.90
15554;DHT22;7878;44.632;10.942;2023-02-26T17:47:23;6.60;99.90
15554;DHT22;7878;44.632;10.942;2023-02-26T17:49:50;6.60;99.90
15554;DHT22;7878;44.632;10.942;2023-02-26T17:52:17;6.60;99.90
15554;DHT22;7878;44.632;10.942;2023-02-26T17:54:42;6.60;99.90
15554;DHT22;7878;44.632;10.942;2023-02-26T17:57:15;6.50;99.90
15554;DHT22;7878;44.632;10.942;2023-02-26T17:59:41;6.50;99.90
15554;DHT22;7878;44.632;10.942;2023-02-26T18:02:25;6.30;99.90
15554;DHT22;7878;44.632;10.942;2023-02-26T18:04:51;6.30;99.90
15554;DHT22;7878;44.632;10.942;2023-02-26T18:07:18;6.10;99.90
15554;DHT22;7878;44.632;10.942;2023-02-26T18:09:45;6.00;99.90
15554;DHT22;7878;44.632;10.942;2023-02-26T18:12:14;6.00;99.90
15554;DHT22;7878;44.632;10.942;2023-02-26T18:14:40;6.00;99.90
15554;DHT22;7878;44.632;10.942;2023-02-26T18:17:09;6.00;99.90
15554;DHT22;7878;44.632;10.942;2023-02-26T18:19:36;6.00;99.90
15554;DHT22;7878;44.632;10.942;2023-02-26T18:22:01;5.90;99.90
15554;DHT22;7878;44.632;10.942;2023-02-26T18:24:27;5.90;99.90
15554;DHT22;7878;44.632;10.942;2023-02-26T18:26:52;5.80;99.90
15554;DHT22;7878;44.632;10.942;2023-02-26T18:29:18;5.80;99.90
15554;DHT22;7878;44.632;10.942;2023-02-26T18:31:45;5.80;99.90
15554;DHT22;7878;44.632;10.942;2023-02-26T18:34:10;5.80;99.90
15554;DHT22;7878;44.632;10.942;2023-02-26T18:36:37;5.70;99.90
15554;DHT22;7878;44.632;10.942;2023-02-26T18:39:07;5.60;99.90
15554;DHT22;7878;44.632;10.942;2023-02-26T18:41:33;5.50;99.90
15554;DHT22;7878;44.632;10.942;2023-02-26T18:43:58;5.50;99.90
15554;DHT22;7878;44.632;10.942;2023-02-26T18:46:24;5.50;99.90
15554;DHT22;7878;44.632;10.942;2023-02-26T18:48:51;5.40;99.90
15554;DHT22;7878;44.632;10.942;2023-02-26T18:51:17;5.50;99.90
15554;DHT22;7878;44.632;10.942;2023-02-26T18:53:43;5.40;99.90
15554;DHT22;7878;44.632;10.942;2023-02-26T18:56:09;5.50;99.90
15554;DHT22;7878;44.632;10.942;2023-02-26T18:58:35;5.30;99.90
15554;DHT22;7878;44.632;10.942;2023-02-26T19:01:04;5.30;99.90
15554;DHT22;7878;44.632;10.942;2023-02-26T19:03:31;5.30;99.90
15554;DHT22;7878;44.632;10.942;2023-02-26T19:06:02;5.30;99.90
15554;DHT22;7878;44.632;10.942;2023-02-26T19:08:28;5.30;99.90
15554;DHT22;7878;44.632;10.942;2023-02-26T19:10:55;5.20;99.90
15554;DHT22;7878;44.632;10.942;2023-02-26T19:13:21;5.20;99.90
15554;DHT22;7878;44.632;10.942;2023-02-26T19:15:47;5.20;99.90
15554;DHT22;7878;44.632;10.942;2023-02-26T19:18:13;5.20;99.90
15554;DHT22;7878;44.632;10.942;2023-02-26T19:20:39;5.20;99.90
15554;DHT22;7878;44.632;10.942;2023-02-26T19:23:06;5.10;99.90
15554;DHT22;7878;44.632;10.942;2023-02-26T19:25:33;5.10;99.90
15554;DHT22;7878;44.632;10.942;2023-02-26T19:27:59;5.00;99.90
15554;DHT22;7878;44.632;10.942;2023-02-26T19:30:26;5.00;99.90
15554;DHT22;7878;44.632;10.942;2023-02-26T19:32:52;5.00;99.90
15554;DHT22;7878;44.632;10.942;2023-02-26T19:35:18;4.90;99.90
15554;DHT22;7878;44.632;10.942;2023-02-26T19:37:44;5.00;99.90
15554;DHT22;7878;44.632;10.942;2023-02-26T19:40:10;4.90;99.90
15554;DHT22;7878;44.632;10.942;2023-02-26T19:42:41;5.00;99.90
15554;DHT22;7878;44.632;10.942;2023-02-26T19:45:07;4.90;99.90
15554;DHT22;7878;44.632;10.942;2023-02-26T19:47:33;4.80;99.90
15554;DHT22;7878;44.632;10.942;2023-02-26T19:49:59;4.90;99.90
15554;DHT22;7878;44.632;10.942;2023-02-26T19:52:25;4.90;99.90
15554;DHT22;7878;44.632;10.942;2023-02-26T19:54:52;4.90;99.90
15554;DHT22;7878;44.632;10.942;2023-02-26T19:57:18;4.90;99.90
15554;DHT22;7878;44.632;10.942;2023-02-26T19:59:45;4.90;99.90
15554;DHT22;7878;44.632;10.942;2023-02-26T20:02:11;4.90;99.90
15554;DHT22;7878;44.632;10.942;2023-02-26T20:04:37;4.90;99.90
15554;DHT22;7878;44.632;10.942;2023-02-26T20:07:03;4.90;99.90
15554;DHT22;7878;44.632;10.942;2023-02-26T20:09:29;4.90;99.90
15554;DHT22;7878;44.632;10.942;2023-02-26T20:11:54;4.90;99.90